Horizon Kodiak — KGTZ — position and weather

sailwx.info

Track history (hours):
 
Tides and Currents Weather Stations Pressure Air Temp Water Temp Dewpoint Dewpoint Depression Visibility Wind Speed Wind Dir Waves Ship Positions

Horizon Kodiak

Owner: HORIZON LINES LLC, RALEIGH, NC. More information available from US FCC via Universal Licensing System and Coast Guard Vessel Documentation Center.

Last reported at 2015-Apr-26 08:29 UTC. Time now 2015-Apr-28 00:29 UTC.
Position N 49°32' W 127°14'.

Type: Cargo ship. MMSI: 366793000.

Date/timePositionNaut miles runAvg speedWind from/ knotsBaromVisibWave heightAir tempDewpointWater temp
2015-Apr-26 08:29N 49°32' W 127°14'1819.3
2015-Apr-26 07:33N 49°21' W 126°52'2019.6
2015-Apr-26 06:33N 49°09' W 126°28'1919.4
2015-Apr-26 05:34N 48°58' W 126°04'1919.4
2015-Apr-26 04:34N 48°46' W 125°40'1919.2
2015-Apr-26 03:34N 48°35' W 125°17'1818.5
2015-Apr-26 02:34N 48°31' W 124°50'1918.9
2015-Apr-26 01:34N 48°25' W 124°23'1919.3
2015-Apr-26 00:33N 48°18' W 123°56'2019.8
2015-Apr-25 23:33N 48°13' W 123°27'1515.1
2015-Apr-25 22:33N 48°13' W 123°04'1919.6
2015-Apr-25 21:33N 48°04' W 122°38'2020.4
2015-Apr-25 20:33N 47°45' W 122°26'2019.7
2015-Apr-25 19:33N 47°26' W 122°23'10 9.7
2015-Apr-25 18:34N 47°16' W 122°25'0 0.0
2015-Apr-25 17:34N 47°16' W 122°25'0 0.0
2015-Apr-25 16:34N 47°16' W 122°25'0 0.0
2015-Apr-25 15:34N 47°16' W 122°25'0 0.0
2015-Apr-25 14:33N 47°16' W 122°25'0 0.0
2015-Apr-25 13:34N 47°16' W 122°25'0 0.0
2015-Apr-25 12:33N 47°16' W 122°25'0 0.0
2015-Apr-25 11:33N 47°16' W 122°25'0 0.0
2015-Apr-25 10:33N 47°16' W 122°25'0 0.0
2015-Apr-25 09:34N 47°16' W 122°25'0 0.0
2015-Apr-25 08:33N 47°16' W 122°25'0 0.0
2015-Apr-25 07:33N 47°16' W 122°25'0 0.0
2015-Apr-25 06:34N 47°16' W 122°25'0 0.0
2015-Apr-25 05:34N 47°16' W 122°25'0 0.0
2015-Apr-25 04:33N 47°16' W 122°25'0 0.0
2015-Apr-25 03:33N 47°16' W 122°25'0 0.0
2015-Apr-25 02:34N 47°16' W 122°25'0 0.0
2015-Apr-25 01:34N 47°16' W 122°25'0 0.0
2015-Apr-25 00:34N 47°16' W 122°25'0 0.1
2015-Apr-24 23:34N 47°16' W 122°25'5 5.3
2015-Apr-24 22:34N 47°21' W 122°25'1717.2
2015-Apr-24 21:34N 47°38' W 122°28'1817.6
2015-Apr-24 20:34N 47°56' W 122°31'1715.9
2015-Apr-24 19:30N 48°10' W 122°46'1717.6
2015-Apr-24 18:33N 48°12' W 123°10'1514.6
2015-Apr-24 17:33N 48°13' W 123°32'1818.2
2015-Apr-24 16:33N 48°15' W 123°60'1919.4
2015-Apr-24 15:33N 48°23' W 124°26'1818.1
2015-Apr-24 14:33N 48°28' W 124°52'1918.8
2015-Apr-24 13:33N 48°29' W 125°20'1818.3
2015-Apr-24 12:33N 48°39' W 125°43'1918.5
2015-Apr-24 11:33N 48°50' W 126°06'1918.7
2015-Apr-24 10:33N 49°01' W 126°29'1919.4
2015-Apr-24 09:33N 49°13' W 126°53'2519.5
2015-Apr-24 08:18N 49°26' W 127°24'4820.7
2015-Apr-24 06:00N 49°54' W 128°24'   070 / 81004.110.8 4.4 1.910.0
2015-Apr-17 04:32N 49°29' W 127°08'1818.7
2015-Apr-17 03:33N 49°18' W 126°46'1818.4
2015-Apr-17 02:33N 49°07' W 126°23'1918.9
2015-Apr-17 01:34N 48°56' W 125°60'1918.6
2015-Apr-17 00:34N 48°44' W 125°37'1918.6
2015-Apr-16 23:34N 48°33' W 125°15'1818.3
2015-Apr-16 22:34N 48°30' W 124°47'1919.0
2015-Apr-16 21:33N 48°24' W 124°20'1918.9
2015-Apr-16 20:34N 48°17' W 123°54'1818.1
2015-Apr-16 19:34N 48°13' W 123°27'1414.0
2015-Apr-16 18:33N 48°13' W 123°06'1918.7
2015-Apr-16 17:33N 48°07' W 122°39'1919.3
2015-Apr-16 16:33N 47°50' W 122°27'1918.9
2015-Apr-16 15:33N 47°31' W 122°25'1414.1
2015-Apr-16 14:33N 47°17' W 122°26'1 0.8
2015-Apr-16 13:34N 47°16' W 122°25'0 0.0
2015-Apr-16 12:33N 47°16' W 122°25'0 0.0
2015-Apr-16 11:33N 47°16' W 122°25'0 0.0
2015-Apr-16 10:33N 47°16' W 122°25'0 0.0
2015-Apr-16 09:33N 47°16' W 122°25'0 0.0
2015-Apr-16 08:33N 47°16' W 122°25'  
Track history (hours):
 
Tides and Currents Weather Stations Pressure Air Temp Water Temp Dewpoint Dewpoint Depression Visibility Wind Speed Wind Dir Waves Ship Positions

Horizon Kodiak

Owner: HORIZON LINES LLC, RALEIGH, NC. More information available from US FCC via Universal Licensing System and Coast Guard Vessel Documentation Center.

Last reported at 2015-Apr-26 08:29 UTC. Time now 2015-Apr-28 00:29 UTC.
Position N 49°32' W 127°14'.

Type: Cargo ship. MMSI: 366793000.

Date/timePositionNaut miles runAvg speedWind from/ knotsBaromVisibWave heightAir tempDewpointWater temp
2015-Apr-26 08:29N 49°32' W 127°14'1819.3
2015-Apr-26 07:33N 49°21' W 126°52'2019.6
2015-Apr-26 06:33N 49°09' W 126°28'1919.4
2015-Apr-26 05:34N 48°58' W 126°04'1919.4
2015-Apr-26 04:34N 48°46' W 125°40'1919.2
2015-Apr-26 03:34N 48°35' W 125°17'1818.5
2015-Apr-26 02:34N 48°31' W 124°50'1918.9
2015-Apr-26 01:34N 48°25' W 124°23'1919.3
2015-Apr-26 00:33N 48°18' W 123°56'2019.8
2015-Apr-25 23:33N 48°13' W 123°27'1515.1
2015-Apr-25 22:33N 48°13' W 123°04'1919.6
2015-Apr-25 21:33N 48°04' W 122°38'2020.4
2015-Apr-25 20:33N 47°45' W 122°26'2019.7
2015-Apr-25 19:33N 47°26' W 122°23'10 9.7
2015-Apr-25 18:34N 47°16' W 122°25'0 0.0
2015-Apr-25 17:34N 47°16' W 122°25'0 0.0
2015-Apr-25 16:34N 47°16' W 122°25'0 0.0
2015-Apr-25 15:34N 47°16' W 122°25'0 0.0
2015-Apr-25 14:33N 47°16' W 122°25'0 0.0
2015-Apr-25 13:34N 47°16' W 122°25'0 0.0
2015-Apr-25 12:33N 47°16' W 122°25'0 0.0
2015-Apr-25 11:33N 47°16' W 122°25'0 0.0
2015-Apr-25 10:33N 47°16' W 122°25'0 0.0
2015-Apr-25 09:34N 47°16' W 122°25'0 0.0
2015-Apr-25 08:33N 47°16' W 122°25'0 0.0
2015-Apr-25 07:33N 47°16' W 122°25'0 0.0
2015-Apr-25 06:34N 47°16' W 122°25'0 0.0
2015-Apr-25 05:34N 47°16' W 122°25'0 0.0
2015-Apr-25 04:33N 47°16' W 122°25'0 0.0
2015-Apr-25 03:33N 47°16' W 122°25'0 0.0
2015-Apr-25 02:34N 47°16' W 122°25'0 0.0
2015-Apr-25 01:34N 47°16' W 122°25'0 0.0
2015-Apr-25 00:34N 47°16' W 122°25'0 0.1
2015-Apr-24 23:34N 47°16' W 122°25'5 5.3
2015-Apr-24 22:34N 47°21' W 122°25'1717.2
2015-Apr-24 21:34N 47°38' W 122°28'1817.6
2015-Apr-24 20:34N 47°56' W 122°31'1715.9
2015-Apr-24 19:30N 48°10' W 122°46'1717.6
2015-Apr-24 18:33N 48°12' W 123°10'1514.6
2015-Apr-24 17:33N 48°13' W 123°32'1818.2
2015-Apr-24 16:33N 48°15' W 123°60'1919.4
2015-Apr-24 15:33N 48°23' W 124°26'1818.1
2015-Apr-24 14:33N 48°28' W 124°52'1918.8
2015-Apr-24 13:33N 48°29' W 125°20'1818.3
2015-Apr-24 12:33N 48°39' W 125°43'1918.5
2015-Apr-24 11:33N 48°50' W 126°06'1918.7
2015-Apr-24 10:33N 49°01' W 126°29'1919.4
2015-Apr-24 09:33N 49°13' W 126°53'2519.5
2015-Apr-24 08:18N 49°26' W 127°24'4820.7
2015-Apr-24 06:00N 49°54' W 128°24'   070 / 81004.110.8 4.4 1.910.0
2015-Apr-17 04:32N 49°29' W 127°08'1818.7
2015-Apr-17 03:33N 49°18' W 126°46'1818.4
2015-Apr-17 02:33N 49°07' W 126°23'1918.9
2015-Apr-17 01:34N 48°56' W 125°60'1918.6
2015-Apr-17 00:34N 48°44' W 125°37'1918.6
2015-Apr-16 23:34N 48°33' W 125°15'1818.3
2015-Apr-16 22:34N 48°30' W 124°47'1919.0
2015-Apr-16 21:33N 48°24' W 124°20'1918.9
2015-Apr-16 20:34N 48°17' W 123°54'1818.1
2015-Apr-16 19:34N 48°13' W 123°27'1414.0
2015-Apr-16 18:33N 48°13' W 123°06'1918.7
2015-Apr-16 17:33N 48°07' W 122°39'1919.3
2015-Apr-16 16:33N 47°50' W 122°27'1918.9
2015-Apr-16 15:33N 47°31' W 122°25'1414.1
2015-Apr-16 14:33N 47°17' W 122°26'1 0.8
2015-Apr-16 13:34N 47°16' W 122°25'0 0.0
2015-Apr-16 12:33N 47°16' W 122°25'0 0.0
2015-Apr-16 11:33N 47°16' W 122°25'0 0.0
2015-Apr-16 10:33N 47°16' W 122°25'0 0.0
2015-Apr-16 09:33N 47°16' W 122°25'0 0.0
2015-Apr-16 08:33N 47°16' W 122°25'  

Dump ship's entire track history